SNNL weather

Hospital de Olhos de Minas Gerais Heliport
Nova Lima, Minas Gerais, Brazil

Public forecast

Using degrees Celsius for public forecast. Weather courtesy of forecast.io.

METAR (pilot weather report)

Closest report is Carlos Prates Airport, 5.0 nm (9.3 km) NNW. Retrieved 2019/07/17 17:00 UTC (38 minutes ago):

SBPR 171700Z 10007KT 9999 FEW030 23/12 Q1024

TAF (pilot weather forecast)

Forecast is more than 12 hours old.

Closest forecast is Pampulha - Carlos Drummond de Andrade Airport, 7.8 nm (14.5 km) N. Retrieved 2012/03/26 18:12 UTC (7 years ago):

TAF SBBH 261639Z 2618/2706 09005KT 9999 SCT030 TX28/2618Z TN20/2705Z PROB30 2619/2624 8000 TSRA BKN035 FEW045CB RMK PGG